sensor_id;sensor_type;location;lat;lon;timestamp;P1;durP1;ratioP1;P2;durP2;ratioP2
4533;SDS011;2279;51.448;7.306;2024-01-30T00:01:51;225.88;;;65.72;;
4533;SDS011;2279;51.448;7.306;2024-01-30T00:04:17;224.50;;;65.32;;
4533;SDS011;2279;51.448;7.306;2024-01-30T00:06:43;225.50;;;64.50;;
4533;SDS011;2279;51.448;7.306;2024-01-30T00:09:09;227.35;;;66.18;;
4533;SDS011;2279;51.448;7.306;2024-01-30T00:11:36;225.55;;;64.70;;
4533;SDS011;2279;51.448;7.306;2024-01-30T00:14:02;226.30;;;66.75;;
4533;SDS011;2279;51.448;7.306;2024-01-30T00:16:28;228.77;;;68.30;;
4533;SDS011;2279;51.448;7.306;2024-01-30T00:18:54;228.40;;;66.85;;
4533;SDS011;2279;51.448;7.306;2024-01-30T00:21:20;222.88;;;63.00;;
4533;SDS011;2279;51.448;7.306;2024-01-30T00:23:46;225.52;;;66.15;;
4533;SDS011;2279;51.448;7.306;2024-01-30T00:26:12;224.15;;;64.88;;
4533;SDS011;2279;51.448;7.306;2024-01-30T00:28:40;222.88;;;64.97;;
4533;SDS011;2279;51.448;7.306;2024-01-30T00:31:06;221.68;;;64.53;;
4533;SDS011;2279;51.448;7.306;2024-01-30T00:33:32;224.02;;;66.15;;
4533;SDS011;2279;51.448;7.306;2024-01-30T00:35:58;223.93;;;69.53;;
4533;SDS011;2279;51.448;7.306;2024-01-30T00:38:24;219.00;;;62.25;;
4533;SDS011;2279;51.448;7.306;2024-01-30T00:40:50;225.25;;;65.43;;
4533;SDS011;2279;51.448;7.306;2024-01-30T00:43:16;223.70;;;63.50;;
4533;SDS011;2279;51.448;7.306;2024-01-30T00:45:45;224.13;;;64.40;;
4533;SDS011;2279;51.448;7.306;2024-01-30T00:48:11;222.15;;;63.85;;
4533;SDS011;2279;51.448;7.306;2024-01-30T00:50:37;223.73;;;64.17;;
4533;SDS011;2279;51.448;7.306;2024-01-30T00:53:03;222.43;;;63.30;;
4533;SDS011;2279;51.448;7.306;2024-01-30T00:55:29;223.65;;;66.95;;
4533;SDS011;2279;51.448;7.306;2024-01-30T00:57:55;221.70;;;61.40;;
4533;SDS011;2279;51.448;7.306;2024-01-30T01:00:21;222.13;;;63.07;;
4533;SDS011;2279;51.448;7.306;2024-01-30T01:02:48;224.60;;;65.32;;
4533;SDS011;2279;51.448;7.306;2024-01-30T01:05:14;222.77;;;64.17;;
4533;SDS011;2279;51.448;7.306;2024-01-30T01:07:40;222.73;;;63.70;;
4533;SDS011;2279;51.448;7.306;2024-01-30T01:10:07;222.38;;;64.25;;
4533;SDS011;2279;51.448;7.306;2024-01-30T01:12:33;221.33;;;63.43;;
4533;SDS011;2279;51.448;7.306;2024-01-30T01:14:59;226.35;;;68.35;;
4533;SDS011;2279;51.448;7.306;2024-01-30T01:17:25;222.50;;;65.07;;
4533;SDS011;2279;51.448;7.306;2024-01-30T01:19:52;224.77;;;68.45;;
4533;SDS011;2279;51.448;7.306;2024-01-30T01:22:18;223.63;;;65.40;;
4533;SDS011;2279;51.448;7.306;2024-01-30T01:24:43;223.27;;;64.17;;
4533;SDS011;2279;51.448;7.306;2024-01-30T01:27:09;222.90;;;63.47;;
4533;SDS011;2279;51.448;7.306;2024-01-30T01:29:36;223.23;;;64.80;;
4533;SDS011;2279;51.448;7.306;2024-01-30T01:32:02;221.37;;;63.33;;
4533;SDS011;2279;51.448;7.306;2024-01-30T01:34:28;221.82;;;63.90;;
4533;SDS011;2279;51.448;7.306;2024-01-30T01:36:54;222.73;;;65.57;;
4533;SDS011;2279;51.448;7.306;2024-01-30T01:39:20;224.20;;;65.27;;
4533;SDS011;2279;51.448;7.306;2024-01-30T01:41:46;222.73;;;64.88;;
4533;SDS011;2279;51.448;7.306;2024-01-30T01:44:12;223.27;;;65.40;;
4533;SDS011;2279;51.448;7.306;2024-01-30T01:46:38;222.37;;;63.10;;
4533;SDS011;2279;51.448;7.306;2024-01-30T01:49:04;224.93;;;68.87;;
4533;SDS011;2279;51.448;7.306;2024-01-30T01:51:31;221.48;;;62.90;;
4533;SDS011;2279;51.448;7.306;2024-01-30T01:53:59;223.05;;;64.97;;
4533;SDS011;2279;51.448;7.306;2024-01-30T01:56:27;222.65;;;63.70;;
4533;SDS011;2279;51.448;7.306;2024-01-30T01:58:54;224.77;;;66.47;;
4533;SDS011;2279;51.448;7.306;2024-01-30T02:01:21;221.18;;;62.50;;
4533;SDS011;2279;51.448;7.306;2024-01-30T02:03:47;226.80;;;67.80;;
4533;SDS011;2279;51.448;7.306;2024-01-30T02:06:13;221.82;;;63.25;;
4533;SDS011;2279;51.448;7.306;2024-01-30T02:08:40;223.95;;;65.07;;
4533;SDS011;2279;51.448;7.306;2024-01-30T02:11:06;222.53;;;64.00;;
4533;SDS011;2279;51.448;7.306;2024-01-30T02:13:32;228.13;;;69.80;;
4533;SDS011;2279;51.448;7.306;2024-01-30T02:15:58;222.80;;;64.57;;
4533;SDS011;2279;51.448;7.306;2024-01-30T02:18:23;222.37;;;65.90;;
4533;SDS011;2279;51.448;7.306;2024-01-30T02:20:50;223.10;;;65.07;;
4533;SDS011;2279;51.448;7.306;2024-01-30T02:23:19;224.88;;;65.72;;
4533;SDS011;2279;51.448;7.306;2024-01-30T02:25:45;221.50;;;63.95;;
4533;SDS011;2279;51.448;7.306;2024-01-30T02:28:14;221.50;;;62.80;;
4533;SDS011;2279;51.448;7.306;2024-01-30T02:30:42;223.50;;;64.38;;
4533;SDS011;2279;51.448;7.306;2024-01-30T02:33:08;223.30;;;63.30;;
4533;SDS011;2279;51.448;7.306;2024-01-30T02:35:34;222.30;;;65.90;;
4533;SDS011;2279;51.448;7.306;2024-01-30T02:38:00;222.85;;;64.85;;
4533;SDS011;2279;51.448;7.306;2024-01-30T02:40:26;219.93;;;63.25;;
4533;SDS011;2279;51.448;7.306;2024-01-30T02:42:52;222.03;;;64.10;;
4533;SDS011;2279;51.448;7.306;2024-01-30T02:45:18;221.87;;;63.57;;
4533;SDS011;2279;51.448;7.306;2024-01-30T02:47:45;222.75;;;64.32;;
4533;SDS011;2279;51.448;7.306;2024-01-30T02:50:11;222.13;;;65.63;;
4533;SDS011;2279;51.448;7.306;2024-01-30T02:52:37;220.63;;;64.33;;
4533;SDS011;2279;51.448;7.306;2024-01-30T02:55:03;223.23;;;67.20;;
4533;SDS011;2279;51.448;7.306;2024-01-30T02:57:29;223.27;;;65.72;;
4533;SDS011;2279;51.448;7.306;2024-01-30T02:59:55;221.75;;;65.38;;
4533;SDS011;2279;51.448;7.306;2024-01-30T03:02:21;222.70;;;64.10;;
4533;SDS011;2279;51.448;7.306;2024-01-30T03:04:47;220.05;;;65.50;;
4533;SDS011;2279;51.448;7.306;2024-01-30T03:07:13;220.57;;;63.00;;
4533;SDS011;2279;51.448;7.306;2024-01-30T03:09:40;221.32;;;63.72;;
4533;SDS011;2279;51.448;7.306;2024-01-30T03:12:07;224.65;;;68.95;;
4533;SDS011;2279;51.448;7.306;2024-01-30T03:14:33;224.47;;;66.67;;
4533;SDS011;2279;51.448;7.306;2024-01-30T03:16:59;222.33;;;64.90;;
4533;SDS011;2279;51.448;7.306;2024-01-30T03:19:25;220.87;;;64.67;;
4533;SDS011;2279;51.448;7.306;2024-01-30T03:21:51;222.63;;;66.37;;
4533;SDS011;2279;51.448;7.306;2024-01-30T03:24:17;220.73;;;63.47;;
4533;SDS011;2279;51.448;7.306;2024-01-30T03:26:43;221.73;;;64.80;;
4533;SDS011;2279;51.448;7.306;2024-01-30T03:29:09;224.52;;;67.22;;
4533;SDS011;2279;51.448;7.306;2024-01-30T03:31:35;220.85;;;63.50;;
4533;SDS011;2279;51.448;7.306;2024-01-30T03:34:01;221.77;;;64.15;;
4533;SDS011;2279;51.448;7.306;2024-01-30T03:36:27;220.85;;;62.55;;
4533;SDS011;2279;51.448;7.306;2024-01-30T03:38:53;221.70;;;64.22;;
4533;SDS011;2279;51.448;7.306;2024-01-30T03:41:20;222.20;;;65.03;;
4533;SDS011;2279;51.448;7.306;2024-01-30T03:43:46;219.63;;;62.00;;
4533;SDS011;2279;51.448;7.306;2024-01-30T03:46:13;224.23;;;65.07;;
4533;SDS011;2279;51.448;7.306;2024-01-30T03:48:39;225.03;;;67.27;;
4533;SDS011;2279;51.448;7.306;2024-01-30T03:51:05;225.52;;;67.05;;
4533;SDS011;2279;51.448;7.306;2024-01-30T03:53:31;229.35;;;70.43;;
4533;SDS011;2279;51.448;7.306;2024-01-30T03:55:57;225.40;;;66.57;;
4533;SDS011;2279;51.448;7.306;2024-01-30T03:58:23;223.73;;;65.90;;
4533;SDS011;2279;51.448;7.306;2024-01-30T04:00:49;221.90;;;63.07;;
4533;SDS011;2279;51.448;7.306;2024-01-30T04:03:15;225.32;;;66.47;;
4533;SDS011;2279;51.448;7.306;2024-01-30T04:05:41;224.95;;;65.90;;
4533;SDS011;2279;51.448;7.306;2024-01-30T04:08:07;224.70;;;66.70;;
4533;SDS011;2279;51.448;7.306;2024-01-30T04:10:33;221.70;;;63.60;;
4533;SDS011;2279;51.448;7.306;2024-01-30T04:13:00;223.77;;;66.60;;
4533;SDS011;2279;51.448;7.306;2024-01-30T04:15:26;225.13;;;68.80;;
4533;SDS011;2279;51.448;7.306;2024-01-30T04:17:56;223.15;;;65.28;;
4533;SDS011;2279;51.448;7.306;2024-01-30T04:20:22;225.45;;;66.70;;
4533;SDS011;2279;51.448;7.306;2024-01-30T04:22:49;224.65;;;68.28;;
4533;SDS011;2279;51.448;7.306;2024-01-30T04:25:16;224.63;;;66.35;;
4533;SDS011;2279;51.448;7.306;2024-01-30T04:27:42;223.80;;;65.40;;
4533;SDS011;2279;51.448;7.306;2024-01-30T04:30:08;225.07;;;67.80;;
4533;SDS011;2279;51.448;7.306;2024-01-30T04:32:35;224.00;;;65.47;;
4533;SDS011;2279;51.448;7.306;2024-01-30T04:35:01;221.93;;;64.95;;
4533;SDS011;2279;51.448;7.306;2024-01-30T04:37:27;221.67;;;64.27;;
4533;SDS011;2279;51.448;7.306;2024-01-30T04:39:53;220.23;;;63.00;;
4533;SDS011;2279;51.448;7.306;2024-01-30T04:42:19;224.20;;;67.20;;
4533;SDS011;2279;51.448;7.306;2024-01-30T04:44:45;225.00;;;68.17;;
4533;SDS011;2279;51.448;7.306;2024-01-30T04:47:11;223.73;;;65.63;;
4533;SDS011;2279;51.448;7.306;2024-01-30T04:49:38;222.57;;;65.35;;
4533;SDS011;2279;51.448;7.306;2024-01-30T04:52:05;223.65;;;65.32;;
4533;SDS011;2279;51.448;7.306;2024-01-30T04:54:31;228.32;;;71.38;;
4533;SDS011;2279;51.448;7.306;2024-01-30T04:56:58;221.97;;;64.67;;
4533;SDS011;2279;51.448;7.306;2024-01-30T04:59:24;222.80;;;65.07;;
4533;SDS011;2279;51.448;7.306;2024-01-30T05:01:50;219.97;;;62.93;;
4533;SDS011;2279;51.448;7.306;2024-01-30T05:04:16;222.77;;;65.47;;
4533;SDS011;2279;51.448;7.306;2024-01-30T05:06:42;222.60;;;65.40;;
4533;SDS011;2279;51.448;7.306;2024-01-30T05:09:08;221.20;;;63.40;;
4533;SDS011;2279;51.448;7.306;2024-01-30T05:11:37;221.82;;;63.67;;
4533;SDS011;2279;51.448;7.306;2024-01-30T05:14:04;224.15;;;65.57;;
4533;SDS011;2279;51.448;7.306;2024-01-30T05:16:30;223.50;;;65.38;;
4533;SDS011;2279;51.448;7.306;2024-01-30T05:18:57;219.33;;;61.27;;
4533;SDS011;2279;51.448;7.306;2024-01-30T05:21:24;222.73;;;64.40;;
4533;SDS011;2279;51.448;7.306;2024-01-30T05:23:50;223.47;;;64.40;;
4533;SDS011;2279;51.448;7.306;2024-01-30T05:26:17;220.00;;;60.97;;
4533;SDS011;2279;51.448;7.306;2024-01-30T05:28:43;223.20;;;63.05;;
4533;SDS011;2279;51.448;7.306;2024-01-30T05:31:13;221.05;;;61.60;;
4533;SDS011;2279;51.448;7.306;2024-01-30T05:33:39;222.70;;;63.25;;
4533;SDS011;2279;51.448;7.306;2024-01-30T05:36:05;223.23;;;65.13;;
4533;SDS011;2279;51.448;7.306;2024-01-30T05:38:31;224.73;;;65.97;;
4533;SDS011;2279;51.448;7.306;2024-01-30T05:40:57;222.90;;;63.47;;
4533;SDS011;2279;51.448;7.306;2024-01-30T05:43:24;224.00;;;62.60;;
4533;SDS011;2279;51.448;7.306;2024-01-30T05:45:50;223.18;;;62.30;;
4533;SDS011;2279;51.448;7.306;2024-01-30T05:48:17;224.23;;;64.30;;
4533;SDS011;2279;51.448;7.306;2024-01-30T05:50:43;225.63;;;64.37;;
4533;SDS011;2279;51.448;7.306;2024-01-30T05:53:10;226.50;;;65.10;;
4533;SDS011;2279;51.448;7.306;2024-01-30T05:55:36;225.20;;;65.20;;
4533;SDS011;2279;51.448;7.306;2024-01-30T05:58:01;222.87;;;64.30;;
4533;SDS011;2279;51.448;7.306;2024-01-30T06:00:28;225.90;;;66.45;;
4533;SDS011;2279;51.448;7.306;2024-01-30T06:02:54;224.18;;;63.72;;
4533;SDS011;2279;51.448;7.306;2024-01-30T06:05:20;223.90;;;64.30;;
4533;SDS011;2279;51.448;7.306;2024-01-30T06:07:46;222.87;;;62.67;;
4533;SDS011;2279;51.448;7.306;2024-01-30T06:10:12;224.07;;;65.00;;
4533;SDS011;2279;51.448;7.306;2024-01-30T06:12:39;223.93;;;64.93;;
4533;SDS011;2279;51.448;7.306;2024-01-30T06:15:05;224.45;;;65.05;;
4533;SDS011;2279;51.448;7.306;2024-01-30T06:17:32;224.38;;;65.15;;
4533;SDS011;2279;51.448;7.306;2024-01-30T06:19:58;226.93;;;67.55;;
4533;SDS011;2279;51.448;7.306;2024-01-30T06:22:24;223.82;;;64.60;;
4533;SDS011;2279;51.448;7.306;2024-01-30T06:24:51;223.05;;;63.58;;
4533;SDS011;2279;51.448;7.306;2024-01-30T06:27:17;222.43;;;63.30;;
4533;SDS011;2279;51.448;7.306;2024-01-30T06:29:43;221.23;;;61.07;;
4533;SDS011;2279;51.448;7.306;2024-01-30T06:32:09;224.30;;;63.28;;
4533;SDS011;2279;51.448;7.306;2024-01-30T06:34:35;225.07;;;66.07;;
4533;SDS011;2279;51.448;7.306;2024-01-30T06:37:01;225.68;;;66.20;;
4533;SDS011;2279;51.448;7.306;2024-01-30T06:39:27;225.38;;;65.10;;
4533;SDS011;2279;51.448;7.306;2024-01-30T06:41:53;225.55;;;66.00;;
4533;SDS011;2279;51.448;7.306;2024-01-30T06:44:19;222.27;;;62.67;;
4533;SDS011;2279;51.448;7.306;2024-01-30T06:46:45;222.03;;;61.40;;
4533;SDS011;2279;51.448;7.306;2024-01-30T06:49:11;223.05;;;63.88;;
4533;SDS011;2279;51.448;7.306;2024-01-30T06:51:37;224.70;;;63.00;;
4533;SDS011;2279;51.448;7.306;2024-01-30T06:54:04;226.85;;;65.15;;
4533;SDS011;2279;51.448;7.306;2024-01-30T06:56:30;225.07;;;64.17;;
4533;SDS011;2279;51.448;7.306;2024-01-30T06:58:56;226.03;;;65.50;;
4533;SDS011;2279;51.448;7.306;2024-01-30T07:01:27;225.57;;;64.15;;
4533;SDS011;2279;51.448;7.306;2024-01-30T07:03:54;224.40;;;65.13;;
4533;SDS011;2279;51.448;7.306;2024-01-30T07:06:20;226.37;;;67.30;;
4533;SDS011;2279;51.448;7.306;2024-01-30T07:08:47;222.60;;;62.83;;
4533;SDS011;2279;51.448;7.306;2024-01-30T07:11:18;224.23;;;64.17;;
4533;SDS011;2279;51.448;7.306;2024-01-30T07:13:44;224.18;;;63.97;;
4533;SDS011;2279;51.448;7.306;2024-01-30T07:16:10;225.50;;;65.20;;
4533;SDS011;2279;51.448;7.306;2024-01-30T07:18:36;224.83;;;64.90;;
4533;SDS011;2279;51.448;7.306;2024-01-30T07:21:02;226.67;;;65.37;;
4533;SDS011;2279;51.448;7.306;2024-01-30T07:23:27;229.40;;;67.63;;
4533;SDS011;2279;51.448;7.306;2024-01-30T07:25:55;226.38;;;66.25;;
4533;SDS011;2279;51.448;7.306;2024-01-30T07:28:21;224.37;;;64.77;;
4533;SDS011;2279;51.448;7.306;2024-01-30T07:30:46;224.90;;;64.47;;
4533;SDS011;2279;51.448;7.306;2024-01-30T07:33:13;225.80;;;65.78;;
4533;SDS011;2279;51.448;7.306;2024-01-30T07:35:39;226.50;;;65.72;;
4533;SDS011;2279;51.448;7.306;2024-01-30T07:38:05;224.70;;;64.50;;
4533;SDS011;2279;51.448;7.306;2024-01-30T07:40:31;223.95;;;64.25;;
4533;SDS011;2279;51.448;7.306;2024-01-30T07:42:58;224.15;;;64.60;;
4533;SDS011;2279;51.448;7.306;2024-01-30T07:45:24;226.02;;;67.32;;
4533;SDS011;2279;51.448;7.306;2024-01-30T07:47:52;227.45;;;69.15;;
4533;SDS011;2279;51.448;7.306;2024-01-30T07:50:18;225.67;;;65.17;;
4533;SDS011;2279;51.448;7.306;2024-01-30T07:52:44;225.90;;;68.13;;
4533;SDS011;2279;51.448;7.306;2024-01-30T07:55:16;237.13;;;78.35;;
4533;SDS011;2279;51.448;7.306;2024-01-30T07:57:42;226.43;;;67.35;;
4533;SDS011;2279;51.448;7.306;2024-01-30T08:00:08;225.43;;;65.87;;
4533;SDS011;2279;51.448;7.306;2024-01-30T08:02:34;227.02;;;68.25;;
4533;SDS011;2279;51.448;7.306;2024-01-30T08:05:00;227.97;;;69.97;;
4533;SDS011;2279;51.448;7.306;2024-01-30T08:07:26;226.20;;;67.17;;
4533;SDS011;2279;51.448;7.306;2024-01-30T08:09:54;228.20;;;67.93;;
4533;SDS011;2279;51.448;7.306;2024-01-30T08:12:20;225.57;;;66.67;;
4533;SDS011;2279;51.448;7.306;2024-01-30T08:14:46;229.17;;;70.07;;
4533;SDS011;2279;51.448;7.306;2024-01-30T08:17:12;228.17;;;67.97;;
4533;SDS011;2279;51.448;7.306;2024-01-30T08:19:38;226.20;;;65.87;;
4533;SDS011;2279;51.448;7.306;2024-01-30T08:22:04;230.20;;;69.50;;
4533;SDS011;2279;51.448;7.306;2024-01-30T08:24:30;224.60;;;65.80;;
4533;SDS011;2279;51.448;7.306;2024-01-30T08:26:56;227.77;;;67.70;;
4533;SDS011;2279;51.448;7.306;2024-01-30T08:29:23;227.68;;;67.43;;
4533;SDS011;2279;51.448;7.306;2024-01-30T08:31:49;230.18;;;70.85;;
4533;SDS011;2279;51.448;7.306;2024-01-30T08:34:15;228.33;;;67.17;;
4533;SDS011;2279;51.448;7.306;2024-01-30T08:36:41;232.30;;;71.47;;
4533;SDS011;2279;51.448;7.306;2024-01-30T08:39:07;231.57;;;71.68;;
4533;SDS011;2279;51.448;7.306;2024-01-30T08:41:33;230.52;;;70.68;;
4533;SDS011;2279;51.448;7.306;2024-01-30T08:43:59;229.07;;;69.87;;
4533;SDS011;2279;51.448;7.306;2024-01-30T08:46:25;231.20;;;72.17;;
4533;SDS011;2279;51.448;7.306;2024-01-30T08:48:51;231.57;;;71.90;;
4533;SDS011;2279;51.448;7.306;2024-01-30T08:51:18;230.45;;;72.07;;
4533;SDS011;2279;51.448;7.306;2024-01-30T08:53:44;230.87;;;70.60;;
4533;SDS011;2279;51.448;7.306;2024-01-30T08:56:10;228.07;;;71.40;;
4533;SDS011;2279;51.448;7.306;2024-01-30T08:58:37;231.77;;;73.10;;
4533;SDS011;2279;51.448;7.306;2024-01-30T09:01:03;236.23;;;76.00;;
4533;SDS011;2279;51.448;7.306;2024-01-30T09:03:30;235.90;;;75.15;;
4533;SDS011;2279;51.448;7.306;2024-01-30T09:05:56;230.67;;;69.80;;
4533;SDS011;2279;51.448;7.306;2024-01-30T09:08:22;227.13;;;67.83;;
4533;SDS011;2279;51.448;7.306;2024-01-30T09:10:48;231.93;;;70.45;;
4533;SDS011;2279;51.448;7.306;2024-01-30T09:13:15;230.90;;;69.80;;
4533;SDS011;2279;51.448;7.306;2024-01-30T09:15:41;229.93;;;70.90;;
4533;SDS011;2279;51.448;7.306;2024-01-30T09:18:07;229.27;;;70.03;;
4533;SDS011;2279;51.448;7.306;2024-01-30T09:20:33;230.53;;;73.40;;
4533;SDS011;2279;51.448;7.306;2024-01-30T09:22:59;227.20;;;66.13;;
4533;SDS011;2279;51.448;7.306;2024-01-30T09:25:25;229.87;;;70.57;;
4533;SDS011;2279;51.448;7.306;2024-01-30T09:27:51;230.73;;;72.00;;
4533;SDS011;2279;51.448;7.306;2024-01-30T09:30:17;227.70;;;68.13;;
4533;SDS011;2279;51.448;7.306;2024-01-30T09:32:43;232.32;;;71.85;;
4533;SDS011;2279;51.448;7.306;2024-01-30T09:35:09;232.27;;;72.30;;
4533;SDS011;2279;51.448;7.306;2024-01-30T09:37:35;228.37;;;69.10;;
4533;SDS011;2279;51.448;7.306;2024-01-30T09:40:01;230.07;;;72.17;;
4533;SDS011;2279;51.448;7.306;2024-01-30T09:42:33;229.68;;;70.68;;
4533;SDS011;2279;51.448;7.306;2024-01-30T09:45:01;228.48;;;67.50;;
4533;SDS011;2279;51.448;7.306;2024-01-30T09:47:28;236.13;;;77.78;;
4533;SDS011;2279;51.448;7.306;2024-01-30T09:49:54;231.67;;;72.40;;
4533;SDS011;2279;51.448;7.306;2024-01-30T09:52:21;230.15;;;70.13;;
4533;SDS011;2279;51.448;7.306;2024-01-30T09:54:47;229.17;;;70.47;;
4533;SDS011;2279;51.448;7.306;2024-01-30T09:57:13;231.43;;;71.18;;
4533;SDS011;2279;51.448;7.306;2024-01-30T09:59:41;229.40;;;71.57;;
4533;SDS011;2279;51.448;7.306;2024-01-30T10:02:09;229.27;;;69.72;;
4533;SDS011;2279;51.448;7.306;2024-01-30T10:04:35;231.15;;;71.40;;
4533;SDS011;2279;51.448;7.306;2024-01-30T10:07:01;231.67;;;73.07;;
4533;SDS011;2279;51.448;7.306;2024-01-30T10:09:28;231.48;;;73.82;;
4533;SDS011;2279;51.448;7.306;2024-01-30T10:11:54;231.30;;;73.45;;
4533;SDS011;2279;51.448;7.306;2024-01-30T10:14:20;236.77;;;79.90;;
4533;SDS011;2279;51.448;7.306;2024-01-30T10:16:46;237.27;;;80.37;;
4533;SDS011;2279;51.448;7.306;2024-01-30T10:19:12;237.15;;;78.65;;
4533;SDS011;2279;51.448;7.306;2024-01-30T10:21:38;235.60;;;75.77;;
4533;SDS011;2279;51.448;7.306;2024-01-30T10:24:04;234.53;;;76.57;;
4533;SDS011;2279;51.448;7.306;2024-01-30T10:26:30;235.50;;;76.38;;
4533;SDS011;2279;51.448;7.306;2024-01-30T10:28:59;233.52;;;77.90;;
4533;SDS011;2279;51.448;7.306;2024-01-30T10:31:25;232.70;;;75.60;;
4533;SDS011;2279;51.448;7.306;2024-01-30T10:33:51;240.07;;;82.70;;
4533;SDS011;2279;51.448;7.306;2024-01-30T10:36:17;231.07;;;73.53;;
4533;SDS011;2279;51.448;7.306;2024-01-30T10:38:43;235.25;;;79.10;;
4533;SDS011;2279;51.448;7.306;2024-01-30T10:41:11;239.88;;;81.50;;
4533;SDS011;2279;51.448;7.306;2024-01-30T10:43:42;238.13;;;83.40;;
4533;SDS011;2279;51.448;7.306;2024-01-30T10:46:19;240.95;;;83.10;;
4533;SDS011;2279;51.448;7.306;2024-01-30T10:48:46;239.73;;;82.57;;
4533;SDS011;2279;51.448;7.306;2024-01-30T10:51:14;241.55;;;85.15;;
4533;SDS011;2279;51.448;7.306;2024-01-30T10:53:41;237.52;;;80.00;;
4533;SDS011;2279;51.448;7.306;2024-01-30T10:56:07;239.77;;;86.07;;
4533;SDS011;2279;51.448;7.306;2024-01-30T10:58:33;238.40;;;82.63;;
4533;SDS011;2279;51.448;7.306;2024-01-30T11:01:01;241.03;;;81.83;;
4533;SDS011;2279;51.448;7.306;2024-01-30T11:03:27;243.15;;;85.95;;
4533;SDS011;2279;51.448;7.306;2024-01-30T11:05:53;241.17;;;84.27;;
4533;SDS011;2279;51.448;7.306;2024-01-30T11:08:23;243.00;;;88.50;;
4533;SDS011;2279;51.448;7.306;2024-01-30T11:10:54;244.03;;;89.93;;
4533;SDS011;2279;51.448;7.306;2024-01-30T11:13:22;244.02;;;89.05;;
4533;SDS011;2279;51.448;7.306;2024-01-30T11:15:48;242.87;;;88.87;;
4533;SDS011;2279;51.448;7.306;2024-01-30T11:18:23;241.50;;;86.23;;
4533;SDS011;2279;51.448;7.306;2024-01-30T11:20:50;244.90;;;93.17;;
4533;SDS011;2279;51.448;7.306;2024-01-30T11:23:16;242.50;;;91.10;;
4533;SDS011;2279;51.448;7.306;2024-01-30T11:25:43;240.30;;;85.83;;
4533;SDS011;2279;51.448;7.306;2024-01-30T11:28:14;241.73;;;88.57;;
4533;SDS011;2279;51.448;7.306;2024-01-30T11:30:44;244.23;;;90.47;;
4533;SDS011;2279;51.448;7.306;2024-01-30T11:33:13;242.70;;;89.97;;
4533;SDS011;2279;51.448;7.306;2024-01-30T11:38:05;241.17;;;87.07;;
4533;SDS011;2279;51.448;7.306;2024-01-30T11:40:31;240.25;;;83.70;;
4533;SDS011;2279;51.448;7.306;2024-01-30T11:42:58;244.57;;;88.28;;
4533;SDS011;2279;51.448;7.306;2024-01-30T11:45:24;242.23;;;86.03;;
4533;SDS011;2279;51.448;7.306;2024-01-30T11:47:50;241.45;;;81.78;;
4533;SDS011;2279;51.448;7.306;2024-01-30T11:50:16;245.03;;;88.07;;
4533;SDS011;2279;51.448;7.306;2024-01-30T11:52:42;241.75;;;80.97;;
4533;SDS011;2279;51.448;7.306;2024-01-30T11:55:09;240.30;;;83.72;;
4533;SDS011;2279;51.448;7.306;2024-01-30T11:57:35;239.98;;;82.22;;
4533;SDS011;2279;51.448;7.306;2024-01-30T12:00:02;238.68;;;80.55;;
4533;SDS011;2279;51.448;7.306;2024-01-30T12:02:35;237.20;;;78.70;;
4533;SDS011;2279;51.448;7.306;2024-01-30T12:05:07;236.40;;;79.50;;
4533;SDS011;2279;51.448;7.306;2024-01-30T12:07:33;235.07;;;75.13;;
4533;SDS011;2279;51.448;7.306;2024-01-30T12:09:59;237.63;;;79.15;;
4533;SDS011;2279;51.448;7.306;2024-01-30T12:12:26;236.30;;;78.35;;
4533;SDS011;2279;51.448;7.306;2024-01-30T12:14:52;233.98;;;74.97;;
4533;SDS011;2279;51.448;7.306;2024-01-30T12:17:31;234.75;;;75.53;;
4533;SDS011;2279;51.448;7.306;2024-01-30T12:20:04;235.45;;;76.47;;
4533;SDS011;2279;51.448;7.306;2024-01-30T12:22:31;236.45;;;79.13;;
4533;SDS011;2279;51.448;7.306;2024-01-30T12:24:57;238.07;;;77.88;;
4533;SDS011;2279;51.448;7.306;2024-01-30T12:27:23;233.63;;;76.28;;
4533;SDS011;2279;51.448;7.306;2024-01-30T12:29:55;236.68;;;79.30;;
4533;SDS011;2279;51.448;7.306;2024-01-30T12:32:22;239.60;;;84.30;;
4533;SDS011;2279;51.448;7.306;2024-01-30T12:34:49;233.63;;;74.93;;
4533;SDS011;2279;51.448;7.306;2024-01-30T12:37:15;232.20;;;73.20;;
4533;SDS011;2279;51.448;7.306;2024-01-30T12:39:47;230.50;;;72.75;;
4533;SDS011;2279;51.448;7.306;2024-01-30T12:42:13;234.27;;;76.70;;
4533;SDS011;2279;51.448;7.306;2024-01-30T12:44:39;234.73;;;74.68;;
4533;SDS011;2279;51.448;7.306;2024-01-30T12:47:05;233.30;;;75.15;;
4533;SDS011;2279;51.448;7.306;2024-01-30T12:49:31;231.20;;;71.50;;
4533;SDS011;2279;51.448;7.306;2024-01-30T12:51:58;234.43;;;73.73;;
4533;SDS011;2279;51.448;7.306;2024-01-30T12:54:24;232.35;;;72.88;;
4533;SDS011;2279;51.448;7.306;2024-01-30T12:56:50;233.90;;;74.30;;
4533;SDS011;2279;51.448;7.306;2024-01-30T12:59:16;235.07;;;74.47;;
4533;SDS011;2279;51.448;7.306;2024-01-30T13:01:42;236.57;;;78.00;;
4533;SDS011;2279;51.448;7.306;2024-01-30T13:04:08;235.50;;;76.40;;
4533;SDS011;2279;51.448;7.306;2024-01-30T13:06:35;231.27;;;72.32;;
4533;SDS011;2279;51.448;7.306;2024-01-30T13:09:01;237.07;;;77.63;;
4533;SDS011;2279;51.448;7.306;2024-01-30T13:11:27;232.38;;;73.72;;
4533;SDS011;2279;51.448;7.306;2024-01-30T13:13:53;229.63;;;70.07;;
4533;SDS011;2279;51.448;7.306;2024-01-30T13:16:19;231.50;;;73.57;;
4533;SDS011;2279;51.448;7.306;2024-01-30T13:18:45;228.97;;;70.63;;
4533;SDS011;2279;51.448;7.306;2024-01-30T13:21:11;230.48;;;74.45;;
4533;SDS011;2279;51.448;7.306;2024-01-30T13:23:37;234.02;;;78.57;;
4533;SDS011;2279;51.448;7.306;2024-01-30T13:26:03;227.83;;;70.20;;
4533;SDS011;2279;51.448;7.306;2024-01-30T13:28:29;233.25;;;77.22;;
4533;SDS011;2279;51.448;7.306;2024-01-30T13:30:55;232.07;;;74.10;;
4533;SDS011;2279;51.448;7.306;2024-01-30T13:33:21;229.60;;;70.40;;
4533;SDS011;2279;51.448;7.306;2024-01-30T13:35:47;228.97;;;71.37;;
4533;SDS011;2279;51.448;7.306;2024-01-30T13:38:13;228.13;;;69.10;;
4533;SDS011;2279;51.448;7.306;2024-01-30T13:40:40;227.80;;;68.80;;
4533;SDS011;2279;51.448;7.306;2024-01-30T13:43:06;227.90;;;68.30;;
4533;SDS011;2279;51.448;7.306;2024-01-30T13:45:32;223.40;;;66.00;;
4533;SDS011;2279;51.448;7.306;2024-01-30T13:47:58;230.67;;;73.10;;
4533;SDS011;2279;51.448;7.306;2024-01-30T13:50:24;232.02;;;73.20;;
4533;SDS011;2279;51.448;7.306;2024-01-30T13:52:50;227.80;;;70.97;;
4533;SDS011;2279;51.448;7.306;2024-01-30T13:55:16;227.57;;;70.57;;
4533;SDS011;2279;51.448;7.306;2024-01-30T13:57:42;227.97;;;68.70;;
4533;SDS011;2279;51.448;7.306;2024-01-30T14:00:08;228.97;;;69.97;;
4533;SDS011;2279;51.448;7.306;2024-01-30T14:02:34;227.48;;;69.05;;
4533;SDS011;2279;51.448;7.306;2024-01-30T14:05:00;225.00;;;67.70;;
4533;SDS011;2279;51.448;7.306;2024-01-30T14:07:26;224.77;;;66.13;;
4533;SDS011;2279;51.448;7.306;2024-01-30T14:09:52;226.87;;;66.40;;
4533;SDS011;2279;51.448;7.306;2024-01-30T14:12:18;227.43;;;67.60;;
4533;SDS011;2279;51.448;7.306;2024-01-30T14:14:44;225.43;;;64.17;;
4533;SDS011;2279;51.448;7.306;2024-01-30T14:17:09;230.47;;;72.20;;
4533;SDS011;2279;51.448;7.306;2024-01-30T14:19:36;232.32;;;70.82;;
4533;SDS011;2279;51.448;7.306;2024-01-30T14:22:01;228.60;;;67.90;;
4533;SDS011;2279;51.448;7.306;2024-01-30T14:24:27;230.23;;;70.27;;
4533;SDS011;2279;51.448;7.306;2024-01-30T14:26:53;227.20;;;65.00;;
4533;SDS011;2279;51.448;7.306;2024-01-30T14:29:19;224.82;;;65.50;;
4533;SDS011;2279;51.448;7.306;2024-01-30T14:31:45;225.13;;;63.37;;